TimeCDT,TemperatureF,Dew PointF,Humidity,Sea Level PressureIn,VisibilityMPH,Wind Direction,Wind SpeedMPH,Gust SpeedMPH,PrecipitationIn,Events,Conditions,WindDirDegrees,DateUTC
12:53 AM,75.9,66.9,74,29.99,10.0,SSE,11.5,-,N/A,,Partly Cloudy,160,2013-09-16 05:53:00
1:53 AM,75.9,66.9,74,30.00,9.0,SSE,8.1,-,N/A,,Clear,160,2013-09-16 06:53:00
2:53 AM,77.0,66.0,69,30.04,10.0,NNW,20.7,29.9,N/A,,Overcast,340,2013-09-16 07:53:00
3:25 AM,71.6,64.4,78,30.11,10.0,North,12.7,24.2,N/A,Thunderstorm,Overcast,360,2013-09-16 08:25:00
3:53 AM,71.1,64.9,81,30.06,10.0,North,18.4,-,N/A,,Overcast,360,2013-09-16 08:53:00
4:53 AM,70.0,64.9,84,30.05,10.0,NNE,9.2,-,N/A,,Scattered Clouds,20,2013-09-16 09:53:00
5:42 AM,69.8,64.4,83,30.11,10.0,ENE,4.6,-,N/A,Thunderstorm,Mostly Cloudy,60,2013-09-16 10:42:00
5:53 AM,69.1,64.9,87,30.06,10.0,NE,4.6,-,N/A,,Mostly Cloudy,50,2013-09-16 10:53:00
6:53 AM,70.0,64.9,84,30.09,10.0,North,6.9,-,N/A,,Mostly Cloudy,10,2013-09-16 11:53:00
7:53 AM,69.1,64.0,84,30.10,10.0,East,11.5,-,N/A,,Mostly Cloudy,100,2013-09-16 12:53:00
8:53 AM,72.0,64.9,78,30.10,10.0,East,15.0,-,N/A,,Clear,90,2013-09-16 13:53:00
9:53 AM,75.0,64.0,69,30.11,10.0,East,16.1,-,N/A,,Clear,80,2013-09-16 14:53:00
10:53 AM,80.1,64.0,58,30.11,10.0,East,12.7,23.0,N/A,,Clear,100,2013-09-16 15:53:00
11:53 AM,84.9,64.0,49,30.11,10.0,ESE,12.7,-,N/A,,Clear,120,2013-09-16 16:53:00
12:53 PM,86.0,63.0,46,30.09,10.0,Variable,6.9,-,N/A,,Clear,0,2013-09-16 17:53:00
1:53 PM,89.1,64.0,43,30.06,10.0,South,8.1,-,N/A,,Partly Cloudy,180,2013-09-16 18:53:00
2:45 PM,87.8,62.6,43,30.09,10.0,Variable,4.6,-,N/A,Thunderstorm,Mostly Cloudy,0,2013-09-16 19:45:00
2:53 PM,90.0,63.0,40,30.03,10.0,Variable,3.5,-,N/A,Thunderstorm,Mostly Cloudy,0,2013-09-16 19:53:00
3:13 PM,91.4,62.6,38,30.08,10.0,SW,8.1,-,N/A,Thunderstorm,Mostly Cloudy,220,2013-09-16 20:13:00
3:53 PM,89.1,64.9,45,30.01,10.0,NNE,17.3,-,N/A,Thunderstorm,Scattered Clouds,30,2013-09-16 20:53:00
4:10 PM,84.2,64.4,51,30.07,10.0,NNE,23.0,27.6,N/A,Thunderstorm,Mostly Cloudy,20,2013-09-16 21:10:00
4:53 PM,79.0,61.0,54,30.01,10.0,NE,21.9,-,N/A,Thunderstorm,Mostly Cloudy,50,2013-09-16 21:53:00
5:07 PM,77.0,62.6,61,30.06,10.0,ENE,21.9,33.4,N/A,,Mostly Cloudy,60,2013-09-16 22:07:00
5:53 PM,75.9,59.0,56,30.01,10.0,ENE,13.8,-,N/A,,Clear,60,2013-09-16 22:53:00
6:53 PM,73.0,66.9,81,30.07,6.0,WSW,15.0,20.7,N/A,Rain-Thunderstorm,Light Thunderstorms and Rain,240,2013-09-16 23:53:00
7:44 PM,71.6,69.8,94,30.10,10.0,Calm,Calm,-,N/A,,Scattered Clouds,0,2013-09-17 00:44:00
7:53 PM,72.0,69.1,91,30.06,10.0,Calm,Calm,-,N/A,,Partly Cloudy,0,2013-09-17 00:53:00
8:53 PM,72.0,69.1,91,30.06,9.0,NE,4.6,-,N/A,,Clear,50,2013-09-17 01:53:00
9:53 PM,72.0,69.1,91,30.10,10.0,WNW,5.8,-,N/A,,Overcast,300,2013-09-17 02:53:00
10:25 PM,73.4,68.0,83,30.15,10.0,Calm,Calm,-,N/A,Rain-Thunderstorm,Light Thunderstorms and Rain,0,2013-09-17 03:25:00
10:34 PM,71.6,68.0,88,30.17,1.8,ESE,16.1,19.6,N/A,Rain-Thunderstorm,Heavy Thunderstorms and Rain,110,2013-09-17 03:34:00
10:53 PM,70.0,68.0,93,30.12,1.0,Variable,5.8,17.3,N/A,Rain-Thunderstorm,Heavy Thunderstorms and Rain,0,2013-09-17 03:53:00
11:06 PM,69.8,66.2,88,30.15,3.0,East,8.1,-,N/A,Rain-Thunderstorm,Thunderstorms and Rain,80,2013-09-17 04:06:00
11:53 PM,70.0,69.1,97,30.09,8.0,East,4.6,-,N/A,Thunderstorm,Overcast,80,2013-09-17 04:53:00